createdAt,value
2017-09-16T00:00:43.079Z,1001.6
2017-09-16T00:01:44.446Z,1001.5
2017-09-16T00:03:26.784Z,1001.5
2017-09-16T00:04:28.153Z,1001.5
2017-09-16T00:05:29.522Z,1001.5
2017-09-16T00:06:30.889Z,1001.5
2017-09-16T00:07:32.257Z,1001.5
2017-09-16T00:08:33.627Z,1001.5
2017-09-16T00:09:34.996Z,1001.5
2017-09-16T00:10:36.363Z,1001.5
2017-09-16T00:11:37.732Z,1001.5
2017-09-16T00:12:39.097Z,1001.5
2017-09-16T00:13:40.468Z,1001.5
2017-09-16T00:14:41.836Z,1001.4
2017-09-16T00:15:43.206Z,1001.5
2017-09-16T00:16:44.573Z,1001.5
2017-09-16T00:17:45.954Z,1001.5
2017-09-16T00:18:47.326Z,1001.4
2017-09-16T00:19:48.689Z,1001.4
2017-09-16T00:20:50.060Z,1001.4
2017-09-16T00:21:51.428Z,1001.4
2017-09-16T00:22:52.797Z,1001.4
2017-09-16T00:23:54.164Z,1001.4
2017-09-16T00:24:55.561Z,1001.4
2017-09-16T00:25:56.899Z,1001.4
2017-09-16T00:26:58.267Z,1001.4
2017-09-16T00:27:59.636Z,1001.3
2017-09-16T00:29:01.005Z,1001.3
2017-09-16T00:30:02.371Z,1001.3
2017-09-16T00:31:03.750Z,1001.3
2017-09-16T00:32:05.116Z,1001.3
2017-09-16T00:33:06.482Z,1001.3
2017-09-16T00:34:07.850Z,1001.3
2017-09-16T00:35:50.210Z,1001.3
2017-09-16T00:36:51.583Z,1001.3
2017-09-16T00:37:52.950Z,1001.3
2017-09-16T00:38:54.317Z,1001.3
2017-09-16T00:39:55.684Z,1001.3
2017-09-16T00:40:57.050Z,1001.3
2017-09-16T00:41:58.432Z,1001.3
2017-09-16T00:42:59.794Z,1001.3
2017-09-16T00:44:01.162Z,1001.3
2017-09-16T00:45:02.529Z,1001.3
2017-09-16T00:46:03.896Z,1001.3
2017-09-16T00:47:05.266Z,1001.2
2017-09-16T00:48:06.634Z,1001.3
2017-09-16T00:49:08.002Z,1001.3
2017-09-16T00:50:09.373Z,1001.3
2017-09-16T00:51:10.745Z,1001.3
2017-09-16T00:52:12.105Z,1001.3
2017-09-16T00:53:13.473Z,1001.3
2017-09-16T00:54:14.839Z,1001.3
2017-09-16T00:55:16.208Z,1001.3
2017-09-16T00:56:17.579Z,1001.3
2017-09-16T00:57:18.950Z,1001.3
2017-09-16T00:58:20.316Z,1001.2
2017-09-16T00:59:21.688Z,1001.3
2017-09-16T01:00:23.057Z,1001.3
2017-09-16T01:01:24.428Z,1001.3
2017-09-16T01:02:25.792Z,1001.3
2017-09-16T01:03:27.167Z,1001.3
2017-09-16T01:04:28.536Z,1001.3
2017-09-16T01:05:29.905Z,1001.3
2017-09-16T01:06:31.301Z,1001.3
2017-09-16T01:07:32.639Z,1001.3
2017-09-16T01:08:34.006Z,1001.2
2017-09-16T01:09:35.373Z,1001.2
2017-09-16T01:10:36.743Z,1001.2
2017-09-16T01:11:38.124Z,1001.2
2017-09-16T01:12:39.486Z,1001.2
2017-09-16T01:13:40.845Z,1001.2
2017-09-16T01:14:42.223Z,1001.2
2017-09-16T01:15:43.652Z,1001.2
2017-09-16T01:16:45.017Z,1001.2
2017-09-16T01:17:46.392Z,1001.2
2017-09-16T01:18:47.761Z,1001.2
2017-09-16T01:19:49.131Z,1001.2
2017-09-16T01:20:50.496Z,1001.2
2017-09-16T01:21:51.865Z,1001.2
2017-09-16T01:22:53.232Z,1001.2
2017-09-16T01:23:54.601Z,1001.2
2017-09-16T01:24:55.971Z,1001.2
2017-09-16T01:25:57.339Z,1001.2
2017-09-16T01:26:58.708Z,1001.2
2017-09-16T01:28:41.060Z,1001.1
2017-09-16T01:29:42.431Z,1001.2
2017-09-16T01:30:43.799Z,1001.2
2017-09-16T01:31:45.164Z,1001.1
2017-09-16T01:32:46.539Z,1001.2
2017-09-16T01:33:47.917Z,1001.2
2017-09-16T01:34:49.274Z,1001.2
2017-09-16T01:35:50.645Z,1001.1
2017-09-16T01:36:52.010Z,1001.1
2017-09-16T01:37:53.375Z,1001.2
2017-09-16T01:38:54.743Z,1001.1
2017-09-16T01:39:56.113Z,1001.1
2017-09-16T01:40:57.482Z,1001.1
2017-09-16T01:41:58.849Z,1001.1
2017-09-16T01:43:00.219Z,1001.1
2017-09-16T01:44:01.588Z,1001.1
2017-09-16T01:45:02.954Z,1001.1
2017-09-16T01:46:04.321Z,1001.0
2017-09-16T01:47:05.690Z,1001.0
2017-09-16T01:48:07.058Z,1001.1
2017-09-16T01:49:08.426Z,1001.0
2017-09-16T01:50:09.795Z,1001.1
2017-09-16T01:51:11.163Z,1001.0
2017-09-16T01:52:12.531Z,1001.0
2017-09-16T01:53:13.900Z,1001.0
2017-09-16T01:54:15.273Z,1001.0
2017-09-16T01:55:16.639Z,1001.0
2017-09-16T01:56:18.008Z,1001.0
2017-09-16T01:57:19.374Z,1001.0
2017-09-16T01:58:20.741Z,1001.0
2017-09-16T01:59:22.110Z,1001.1
2017-09-16T02:00:23.479Z,1001.0
2017-09-16T02:01:24.846Z,1001.1
2017-09-16T02:02:26.213Z,1001.1
2017-09-16T02:03:27.581Z,1001.1
2017-09-16T02:04:28.951Z,1001.1
2017-09-16T02:05:30.321Z,1001.1
2017-09-16T02:06:31.687Z,1001.1
2017-09-16T02:07:33.059Z,1001.1
2017-09-16T02:08:34.426Z,1001.1
2017-09-16T02:09:35.795Z,1001.1
2017-09-16T02:10:37.168Z,1001.1
2017-09-16T02:11:38.548Z,1001.1
2017-09-16T02:12:39.917Z,1001.1
2017-09-16T02:13:41.282Z,1001.1
2017-09-16T02:14:42.650Z,1001.1
2017-09-16T02:15:44.019Z,1001.1
2017-09-16T02:16:45.386Z,1001.1
2017-09-16T02:17:46.755Z,1001.1
2017-09-16T02:18:48.124Z,1001.1
2017-09-16T02:19:49.492Z,1001.1
2017-09-16T02:20:50.858Z,1001.1
2017-09-16T02:21:52.225Z,1001.1
2017-09-16T02:22:53.593Z,1001.1
2017-09-16T02:23:54.963Z,1001.1
2017-09-16T02:24:56.330Z,1001.1
2017-09-16T02:25:57.697Z,1001.1
2017-09-16T02:26:59.066Z,1001.1
2017-09-16T02:28:00.432Z,1001.1
2017-09-16T02:29:01.812Z,1001.0
2017-09-16T02:30:03.175Z,1001.1
2017-09-16T02:31:04.543Z,1001.1
2017-09-16T02:32:05.911Z,1001.0
2017-09-16T02:33:07.277Z,1001.0
2017-09-16T02:34:08.646Z,1001.0
2017-09-16T02:35:10.018Z,1001.1
2017-09-16T02:36:11.384Z,1001.1
2017-09-16T02:37:12.752Z,1001.0
2017-09-16T02:38:14.121Z,1001.1
2017-09-16T02:39:15.492Z,1001.0
2017-09-16T02:40:16.858Z,1001.0
2017-09-16T02:41:18.255Z,1001.0
2017-09-16T02:42:19.595Z,1001.0
2017-09-16T02:43:20.961Z,1001.0
2017-09-16T02:45:03.326Z,1001.0
2017-09-16T02:46:04.695Z,1001.1
2017-09-16T02:47:06.062Z,1001.0
2017-09-16T02:48:07.430Z,1001.0
2017-09-16T02:49:08.799Z,1001.0
2017-09-16T02:50:10.164Z,1001.0
2017-09-16T02:51:11.535Z,1001.0
2017-09-16T02:52:12.906Z,1000.9
2017-09-16T02:53:14.270Z,1001.1
2017-09-16T02:54:15.637Z,1001.0
2017-09-16T02:55:17.003Z,1001.0
2017-09-16T02:56:18.397Z,1001.0
2017-09-16T02:57:19.740Z,1001.0
2017-09-16T02:58:21.109Z,1000.9
2017-09-16T02:59:22.480Z,1000.9
2017-09-16T03:00:23.849Z,1001.0
2017-09-16T03:02:06.191Z,1001.0
2017-09-16T03:03:07.557Z,1000.9
2017-09-16T03:04:08.925Z,1001.0
2017-09-16T03:05:10.290Z,1001.0
2017-09-16T03:06:11.656Z,1001.0
2017-09-16T03:07:13.044Z,1001.0
2017-09-16T03:08:14.394Z,1001.0
2017-09-16T03:09:15.768Z,1001.0
2017-09-16T03:10:17.131Z,1000.9
2017-09-16T03:11:18.500Z,1001.0
2017-09-16T03:12:19.867Z,1001.0
2017-09-16T03:13:21.233Z,1001.0
2017-09-16T03:14:22.606Z,1001.0
2017-09-16T03:15:23.971Z,1001.0
2017-09-16T03:16:25.337Z,1001.0
2017-09-16T03:18:07.685Z,1001.0
2017-09-16T03:19:09.060Z,1001.0
2017-09-16T03:20:10.428Z,1001.0
2017-09-16T03:21:11.796Z,1001.0
2017-09-16T03:22:13.182Z,1001.0
2017-09-16T03:23:14.532Z,1001.0
2017-09-16T03:24:15.898Z,1001.0
2017-09-16T03:25:17.272Z,1001.0
2017-09-16T03:26:18.632Z,1001.0
2017-09-16T03:27:19.998Z,1001.0
2017-09-16T03:28:21.368Z,1001.1
2017-09-16T03:29:22.729Z,1001.0
2017-09-16T03:30:24.106Z,1001.0
2017-09-16T03:31:25.475Z,1001.0
2017-09-16T03:32:26.845Z,1001.0
2017-09-16T03:33:28.210Z,1001.0
2017-09-16T03:34:29.581Z,1001.0
2017-09-16T03:35:30.941Z,1001.0
2017-09-16T03:36:32.309Z,1001.0
2017-09-16T03:37:33.672Z,1001.0
2017-09-16T03:38:35.050Z,1001.0
2017-09-16T03:39:36.416Z,1001.0
2017-09-16T03:40:37.782Z,1001.0
2017-09-16T03:41:39.197Z,1001.0
2017-09-16T03:42:40.525Z,1001.0
2017-09-16T03:43:41.895Z,1001.0
2017-09-16T03:44:43.263Z,1001.0
2017-09-16T03:45:44.632Z,1001.0
2017-09-16T03:46:45.998Z,1001.0
2017-09-16T03:47:47.363Z,1001.0
2017-09-16T03:48:48.742Z,1001.0
2017-09-16T03:50:31.101Z,1001.0
2017-09-16T03:51:32.466Z,1001.0
2017-09-16T03:52:33.830Z,1001.0
2017-09-16T03:53:35.199Z,1001.0
2017-09-16T03:54:36.564Z,1001.0
2017-09-16T03:55:37.931Z,1001.0
2017-09-16T03:56:39.298Z,1000.9
2017-09-16T03:57:40.668Z,1001.0
2017-09-16T03:58:42.035Z,1001.0
2017-09-16T03:59:43.423Z,1000.9
2017-09-16T04:00:44.796Z,1000.9
2017-09-16T04:01:46.161Z,1000.9
2017-09-16T04:02:47.527Z,1000.9
2017-09-16T04:03:48.893Z,1000.9
2017-09-16T04:04:50.259Z,1000.9
2017-09-16T04:05:51.631Z,1000.9
2017-09-16T04:06:52.999Z,1000.9
2017-09-16T04:07:54.365Z,1000.9
2017-09-16T04:08:55.740Z,1000.9
2017-09-16T04:09:57.105Z,1000.9
2017-09-16T04:10:58.473Z,1000.9
2017-09-16T04:11:59.849Z,1000.9
2017-09-16T04:13:01.214Z,1000.9
2017-09-16T04:14:02.581Z,1000.9
2017-09-16T04:15:03.952Z,1000.9
2017-09-16T04:16:05.315Z,1001.0
2017-09-16T04:17:06.687Z,1001.0
2017-09-16T04:18:08.055Z,1001.0
2017-09-16T04:19:09.427Z,1000.9
2017-09-16T04:20:10.795Z,1001.0
2017-09-16T04:21:12.160Z,1000.9
2017-09-16T04:22:13.517Z,1000.9
2017-09-16T04:23:14.897Z,1000.9
2017-09-16T04:24:16.268Z,1000.9
2017-09-16T04:25:17.634Z,1000.9
2017-09-16T04:26:19.004Z,1000.9
2017-09-16T04:27:20.377Z,1000.9
2017-09-16T04:28:21.735Z,1000.9
2017-09-16T04:30:04.082Z,1000.9
2017-09-16T04:31:05.445Z,1000.9
2017-09-16T04:32:06.808Z,1000.9
2017-09-16T04:33:08.175Z,1000.8
2017-09-16T04:34:09.543Z,1000.8
2017-09-16T04:35:10.911Z,1000.8
2017-09-16T04:36:12.278Z,1000.8
2017-09-16T04:37:13.646Z,1000.8
2017-09-16T04:38:15.014Z,1000.8
2017-09-16T04:39:16.380Z,1000.8
2017-09-16T04:40:17.748Z,1000.8
2017-09-16T04:41:19.115Z,1000.8
2017-09-16T04:42:20.483Z,1000.9
2017-09-16T04:43:21.855Z,1000.8
2017-09-16T04:44:23.246Z,1000.8
2017-09-16T04:46:05.588Z,1000.9
2017-09-16T04:47:06.949Z,1000.8
2017-09-16T04:48:08.319Z,1000.8
2017-09-16T04:49:09.688Z,1000.8
2017-09-16T04:50:11.052Z,1000.9
2017-09-16T04:51:12.422Z,1000.9
2017-09-16T04:52:13.801Z,1000.9
2017-09-16T04:53:15.170Z,1000.8
2017-09-16T04:54:16.537Z,1000.9
2017-09-16T04:55:17.904Z,1000.9
2017-09-16T04:56:19.271Z,1000.9
2017-09-16T04:57:20.640Z,1000.9
2017-09-16T04:58:22.009Z,1000.9
2017-09-16T04:59:23.384Z,1000.9
2017-09-16T05:00:24.760Z,1000.9
2017-09-16T05:01:26.124Z,1000.9
2017-09-16T05:02:27.493Z,1000.9
2017-09-16T05:03:28.861Z,1000.9
2017-09-16T05:04:30.228Z,1000.9
2017-09-16T05:05:31.596Z,1000.9
2017-09-16T05:06:32.971Z,1000.9
2017-09-16T05:07:34.342Z,1000.9
2017-09-16T05:08:35.711Z,1000.9
2017-09-16T05:09:37.082Z,1001.0
2017-09-16T05:10:38.448Z,1000.9
2017-09-16T05:11:39.817Z,1000.9
2017-09-16T05:12:41.189Z,1000.9
2017-09-16T05:13:42.557Z,1001.0
2017-09-16T05:14:43.932Z,1000.9
2017-09-16T05:15:45.298Z,1000.9
2017-09-16T05:16:46.674Z,1000.9
2017-09-16T05:17:48.039Z,1000.9
2017-09-16T05:18:49.407Z,1001.0
2017-09-16T05:19:50.786Z,1001.0
2017-09-16T05:20:52.151Z,1001.0
2017-09-16T05:21:53.523Z,1001.0
2017-09-16T05:22:54.895Z,1000.9
2017-09-16T05:23:56.262Z,1001.0
2017-09-16T05:24:57.637Z,1000.9
2017-09-16T05:25:59.024Z,1001.0
2017-09-16T05:27:00.392Z,1001.0
2017-09-16T05:28:01.767Z,1001.0
2017-09-16T05:29:03.137Z,1001.0
2017-09-16T05:30:04.514Z,1001.0
2017-09-16T05:31:05.886Z,1000.9
2017-09-16T05:32:07.259Z,1001.0
2017-09-16T05:33:49.601Z,1001.0
2017-09-16T05:34:50.970Z,1001.1
2017-09-16T05:35:52.334Z,1001.1
2017-09-16T05:36:53.720Z,1001.1
2017-09-16T05:37:55.096Z,1001.1
2017-09-16T05:38:56.468Z,1001.1
2017-09-16T05:39:57.843Z,1001.1
2017-09-16T05:40:59.214Z,1001.1
2017-09-16T05:42:00.584Z,1001.2
2017-09-16T05:43:01.957Z,1001.1
2017-09-16T05:44:03.328Z,1001.2
2017-09-16T05:45:04.703Z,1001.2
2017-09-16T05:46:06.073Z,1001.1
2017-09-16T05:47:07.447Z,1001.2
2017-09-16T05:48:08.822Z,1001.1
2017-09-16T05:49:10.197Z,1001.1
2017-09-16T05:50:11.573Z,1001.2
2017-09-16T05:51:12.946Z,1001.2
2017-09-16T05:52:14.318Z,1001.3
2017-09-16T05:53:15.694Z,1001.2
2017-09-16T05:54:17.068Z,1001.2
2017-09-16T05:55:18.445Z,1001.2
2017-09-16T05:56:19.816Z,1001.3
2017-09-16T05:57:21.199Z,1001.2
2017-09-16T05:58:22.561Z,1001.2
2017-09-16T05:59:23.947Z,1001.2
2017-09-16T06:00:25.319Z,1001.2
2017-09-16T06:01:26.697Z,1001.2
2017-09-16T06:02:28.072Z,1001.1
2017-09-16T06:03:29.455Z,1001.2
2017-09-16T06:04:30.830Z,1001.1
2017-09-16T06:05:32.202Z,1001.2
2017-09-16T06:06:33.581Z,1001.2
2017-09-16T06:07:34.952Z,1001.1
2017-09-16T06:08:36.329Z,1001.2
2017-09-16T06:09:37.706Z,1001.2
2017-09-16T06:10:39.082Z,1001.2
2017-09-16T06:11:40.453Z,1001.2
2017-09-16T06:12:41.828Z,1001.2
2017-09-16T06:13:43.206Z,1001.2
2017-09-16T06:14:44.581Z,1001.2
2017-09-16T06:15:45.954Z,1001.2
2017-09-16T06:16:47.333Z,1001.2
2017-09-16T06:17:48.704Z,1001.3
2017-09-16T06:18:50.075Z,1001.3
2017-09-16T06:19:51.452Z,1001.2
2017-09-16T06:20:52.830Z,1001.2
2017-09-16T06:22:35.183Z,1001.2
2017-09-16T06:23:36.558Z,1001.3
2017-09-16T06:24:37.928Z,1001.2
2017-09-16T06:25:39.304Z,1001.3
2017-09-16T06:26:40.684Z,1001.3
2017-09-16T06:27:42.059Z,1001.3
2017-09-16T06:28:43.445Z,1001.3
2017-09-16T06:29:44.821Z,1001.3
2017-09-16T06:30:46.198Z,1001.3
2017-09-16T06:31:47.575Z,1001.3
2017-09-16T06:32:48.951Z,1001.3
2017-09-16T06:33:50.323Z,1001.3
2017-09-16T06:34:51.704Z,1001.3
2017-09-16T06:35:53.078Z,1001.4
2017-09-16T06:36:54.455Z,1001.4
2017-09-16T06:37:55.831Z,1001.4
2017-09-16T06:38:57.204Z,1001.4
2017-09-16T06:39:58.579Z,1001.4
2017-09-16T06:40:59.958Z,1001.4
2017-09-16T06:42:01.336Z,1001.5
2017-09-16T06:43:02.717Z,1001.5
2017-09-16T06:44:04.090Z,1001.5
2017-09-16T06:45:05.465Z,1001.5
2017-09-16T06:46:06.842Z,1001.5
2017-09-16T06:47:08.219Z,1001.5
2017-09-16T06:48:09.612Z,1001.5
2017-09-16T06:49:10.985Z,1001.5
2017-09-16T06:50:12.364Z,1001.5
2017-09-16T06:51:13.758Z,1001.6
2017-09-16T06:52:15.121Z,1001.6
2017-09-16T06:53:16.497Z,1001.5
2017-09-16T06:54:17.881Z,1001.6
2017-09-16T06:55:19.284Z,1001.6
2017-09-16T06:56:20.661Z,1001.6
2017-09-16T06:57:22.048Z,1001.7
2017-09-16T06:58:23.423Z,1001.7
2017-09-16T06:59:24.801Z,1001.7
2017-09-16T07:00:26.197Z,1001.8
2017-09-16T07:01:27.571Z,1001.7
2017-09-16T07:02:28.954Z,1001.8
2017-09-16T07:03:30.330Z,1001.7
2017-09-16T07:04:31.713Z,1001.8
2017-09-16T07:05:33.087Z,1001.8
2017-09-16T07:06:34.573Z,1001.8
2017-09-16T07:07:35.952Z,1001.8
2017-09-16T07:08:37.349Z,1001.9
2017-09-16T07:09:38.745Z,1001.8
2017-09-16T07:10:40.123Z,1001.8
2017-09-16T07:11:41.503Z,1001.8
2017-09-16T07:12:42.887Z,1001.9
2017-09-16T07:13:44.272Z,1001.9
2017-09-16T07:14:45.651Z,1001.9
2017-09-16T07:15:47.037Z,1001.9
2017-09-16T07:16:48.557Z,1002.0
2017-09-16T07:17:49.897Z,1001.9
2017-09-16T07:18:51.277Z,1001.9
2017-09-16T07:19:52.659Z,1002.0
2017-09-16T07:20:54.043Z,1002.0
2017-09-16T07:21:55.420Z,1002.1
2017-09-16T07:22:56.808Z,1002.2
2017-09-16T07:23:58.178Z,1002.4
2017-09-16T07:24:59.573Z,1002.5
2017-09-16T07:26:00.977Z,1002.6
2017-09-16T07:27:02.370Z,1002.7
2017-09-16T07:28:03.788Z,1002.6
2017-09-16T07:29:05.174Z,1002.4
2017-09-16T07:30:06.559Z,1002.3
2017-09-16T07:31:07.937Z,1002.2
2017-09-16T07:32:09.326Z,1002.2
2017-09-16T07:33:10.714Z,1002.2
2017-09-16T07:34:12.106Z,1002.2
2017-09-16T07:35:13.532Z,1002.2
2017-09-16T07:36:14.906Z,1002.2
2017-09-16T07:37:16.284Z,1002.2
2017-09-16T07:38:17.668Z,1002.2
2017-09-16T07:39:19.050Z,1002.3
2017-09-16T07:40:20.437Z,1002.2
2017-09-16T07:41:21.820Z,1002.2
2017-09-16T07:42:23.326Z,1002.3
2017-09-16T07:43:24.705Z,1002.3
2017-09-16T07:44:26.090Z,1002.3
2017-09-16T07:45:27.472Z,1002.3
2017-09-16T07:46:28.861Z,1002.2
2017-09-16T07:47:30.246Z,1002.2
2017-09-16T07:48:31.630Z,1002.2
2017-09-16T07:49:33.013Z,1002.2
2017-09-16T07:50:34.401Z,1002.2
2017-09-16T07:51:35.791Z,1002.2
2017-09-16T07:52:37.196Z,1002.2
2017-09-16T07:53:38.588Z,1002.2
2017-09-16T07:54:39.980Z,1002.2
2017-09-16T07:55:41.364Z,1002.3
2017-09-16T07:56:42.748Z,1002.3
2017-09-16T07:57:44.155Z,1002.2
2017-09-16T07:58:45.531Z,1002.3
2017-09-16T07:59:46.925Z,1002.3
2017-09-16T08:00:48.319Z,1002.3
2017-09-16T08:01:49.703Z,1002.4
2017-09-16T08:02:51.089Z,1002.5
2017-09-16T08:03:52.473Z,1002.5
2017-09-16T08:04:53.865Z,1002.5
2017-09-16T08:05:55.258Z,1002.6
2017-09-16T08:06:56.645Z,1002.6
2017-09-16T08:07:58.027Z,1002.6
2017-09-16T08:08:59.412Z,1002.7
2017-09-16T08:10:00.804Z,1002.7
2017-09-16T08:11:02.184Z,1002.7
2017-09-16T08:12:03.589Z,1002.7
2017-09-16T08:13:04.966Z,1002.7
2017-09-16T08:14:06.360Z,1002.7
2017-09-16T08:15:07.774Z,1002.7
2017-09-16T08:16:09.130Z,1002.7
2017-09-16T08:17:10.523Z,1002.6
2017-09-16T08:18:11.905Z,1002.7
2017-09-16T08:19:13.287Z,1002.7
2017-09-16T08:20:14.689Z,1002.7
2017-09-16T08:21:16.073Z,1002.7
2017-09-16T08:22:17.458Z,1002.7
2017-09-16T08:23:18.843Z,1002.5
2017-09-16T08:24:20.229Z,1002.4
2017-09-16T08:25:21.612Z,1002.4
2017-09-16T08:26:22.995Z,1002.4
2017-09-16T08:27:24.380Z,1002.5
2017-09-16T08:28:25.762Z,1002.4
2017-09-16T08:30:08.150Z,1002.4
2017-09-16T08:31:09.532Z,1002.4
2017-09-16T08:32:10.915Z,1002.4
2017-09-16T08:33:12.298Z,1002.4
2017-09-16T08:34:13.708Z,1002.5
2017-09-16T08:35:15.095Z,1002.4
2017-09-16T08:36:16.483Z,1002.4
2017-09-16T08:37:17.869Z,1002.4
2017-09-16T08:38:19.263Z,1002.4
2017-09-16T08:39:20.649Z,1002.5
2017-09-16T08:40:22.032Z,1002.4
2017-09-16T08:41:23.417Z,1002.5
2017-09-16T08:42:24.802Z,1002.4
2017-09-16T08:43:26.185Z,1002.4
2017-09-16T08:44:27.575Z,1002.5
2017-09-16T08:45:28.961Z,1002.5
2017-09-16T08:46:30.349Z,1002.5
2017-09-16T08:47:31.731Z,1002.4
2017-09-16T08:48:33.114Z,1002.5
2017-09-16T08:49:34.499Z,1002.5
2017-09-16T08:50:35.890Z,1002.5
2017-09-16T08:51:37.269Z,1002.5
2017-09-16T08:52:38.649Z,1002.5
2017-09-16T08:53:40.051Z,1002.6
2017-09-16T08:54:41.417Z,1002.5
2017-09-16T08:55:42.808Z,1002.6
2017-09-16T08:56:44.190Z,1002.5
2017-09-16T08:57:45.575Z,1002.6
2017-09-16T08:58:46.962Z,1003.1
2017-09-16T08:59:48.344Z,1003.5
2017-09-16T09:01:30.726Z,1003.4
2017-09-16T09:02:32.107Z,1003.4
2017-09-16T09:03:33.489Z,1003.4
2017-09-16T09:04:34.872Z,1003.5
2017-09-16T09:05:36.254Z,1003.4
2017-09-16T09:06:37.633Z,1002.5
2017-09-16T09:07:39.027Z,1003.3
2017-09-16T09:08:40.411Z,1003.4
2017-09-16T09:09:41.793Z,1003.3
2017-09-16T09:10:43.178Z,1003.3
2017-09-16T09:11:44.560Z,1003.3
2017-09-16T09:12:45.944Z,1003.3
2017-09-16T09:13:47.329Z,1003.3
2017-09-16T09:14:48.713Z,1003.2
2017-09-16T09:15:50.096Z,1003.2
2017-09-16T09:16:51.479Z,1003.2
2017-09-16T09:17:52.861Z,1003.2
2017-09-16T09:18:54.252Z,1003.1
2017-09-16T09:19:55.637Z,1003.1
2017-09-16T09:20:57.023Z,1003.1
2017-09-16T09:21:58.409Z,1003.1
2017-09-16T09:22:59.797Z,1003.1
2017-09-16T09:24:01.179Z,1003.1
2017-09-16T09:25:02.563Z,1003.1
2017-09-16T09:26:03.944Z,1003.1
2017-09-16T09:27:05.339Z,1003.1
2017-09-16T09:28:06.725Z,1003.1
2017-09-16T09:29:08.109Z,1003.1
2017-09-16T09:30:09.495Z,1003.1
2017-09-16T09:31:10.880Z,1003.0
2017-09-16T09:32:12.264Z,1003.0
2017-09-16T09:33:13.650Z,1003.1
2017-09-16T09:34:15.043Z,1003.1
2017-09-16T09:35:16.432Z,1003.1
2017-09-16T09:36:17.820Z,1003.1
2017-09-16T09:37:19.212Z,1003.1
2017-09-16T09:38:20.596Z,1003.1
2017-09-16T09:39:22.002Z,1003.1
2017-09-16T09:40:23.388Z,1003.1
2017-09-16T09:41:24.777Z,1003.2
2017-09-16T09:42:26.162Z,1003.1
2017-09-16T09:43:27.553Z,1003.0
2017-09-16T09:44:28.942Z,1002.7
2017-09-16T09:45:30.327Z,1003.1
2017-09-16T09:46:31.716Z,1002.5
2017-09-16T09:47:33.102Z,1003.1
2017-09-16T09:48:34.512Z,1003.0
2017-09-16T09:50:16.894Z,1002.9
2017-09-16T09:51:18.280Z,1003.0
2017-09-16T09:52:19.675Z,1003.0
2017-09-16T09:53:21.062Z,1003.0
2017-09-16T09:54:22.452Z,1003.0
2017-09-16T09:55:23.838Z,1003.1
2017-09-16T09:56:25.238Z,1003.1
2017-09-16T09:57:26.617Z,1003.1
2017-09-16T09:58:28.015Z,1003.1
2017-09-16T09:59:29.404Z,1003.1
2017-09-16T10:00:30.791Z,1003.2
2017-09-16T10:01:32.182Z,1003.2
2017-09-16T10:02:33.571Z,1003.1
2017-09-16T10:03:34.964Z,1003.2
2017-09-16T10:04:36.353Z,1003.1
2017-09-16T10:06:17.736Z,1003.2
2017-09-16T10:07:19.124Z,1003.1
2017-09-16T10:08:41.134Z,1002.7
2017-09-16T10:09:42.523Z,1002.7
2017-09-16T10:11:04.531Z,1002.8
2017-09-16T10:12:05.922Z,1002.7
2017-09-16T10:13:07.308Z,1002.9
2017-09-16T10:14:08.701Z,1002.7
2017-09-16T10:15:10.096Z,1002.8
2017-09-16T10:16:11.486Z,1002.7
2017-09-16T10:17:12.879Z,1002.7
2017-09-16T10:18:14.294Z,1002.6
2017-09-16T10:19:15.682Z,1002.7
2017-09-16T10:20:17.066Z,1002.7
2017-09-16T10:21:59.448Z,1002.8
2017-09-16T10:23:00.838Z,1002.7
2017-09-16T10:24:02.226Z,1002.5
2017-09-16T10:25:03.615Z,1002.8
2017-09-16T10:26:05.017Z,1002.9
2017-09-16T10:27:06.412Z,1002.9
2017-09-16T10:28:07.804Z,1002.8
2017-09-16T10:29:09.196Z,1002.6
2017-09-16T10:30:10.585Z,1002.4
2017-09-16T10:31:11.972Z,1002.5
2017-09-16T10:32:13.364Z,1002.7
2017-09-16T10:33:14.756Z,1002.8
2017-09-16T10:34:16.142Z,1002.4
2017-09-16T10:35:17.534Z,1002.7
2017-09-16T10:36:18.922Z,1002.4
2017-09-16T10:37:20.314Z,1002.4
2017-09-16T10:38:21.694Z,1002.4
2017-09-16T10:39:23.083Z,1002.6
2017-09-16T10:40:24.485Z,1002.6
2017-09-16T10:41:25.859Z,1002.7
2017-09-16T10:42:27.248Z,1002.7
2017-09-16T10:43:28.659Z,1002.6
2017-09-16T10:44:30.051Z,1002.6
2017-09-16T10:45:31.435Z,1002.4
2017-09-16T10:46:32.829Z,1002.4
2017-09-16T10:47:34.266Z,1002.4
2017-09-16T10:48:35.656Z,1002.4
2017-09-16T10:49:37.068Z,1002.6
2017-09-16T10:50:38.458Z,1002.5
2017-09-16T10:51:39.851Z,1002.5
2017-09-16T10:52:41.233Z,1002.6
2017-09-16T10:54:22.617Z,1002.5
2017-09-16T10:55:24.002Z,1002.8
2017-09-16T10:56:46.998Z,1002.5
2017-09-16T10:57:48.387Z,1002.4
2017-09-16T10:58:49.773Z,1002.5
2017-09-16T10:59:51.160Z,1002.7
2017-09-16T11:00:52.546Z,1002.8
2017-09-16T11:01:53.934Z,1002.7
2017-09-16T11:02:55.327Z,1002.6
2017-09-16T11:03:56.715Z,1002.5
2017-09-16T11:04:58.099Z,1002.5
2017-09-16T11:05:59.483Z,1002.4
2017-09-16T11:07:00.874Z,1002.6
2017-09-16T11:08:02.257Z,1002.5
2017-09-16T11:09:03.646Z,1002.5
2017-09-16T11:10:45.023Z,1002.4
2017-09-16T11:11:46.408Z,1002.4
2017-09-16T11:13:08.412Z,1002.5
2017-09-16T11:14:09.800Z,1002.6
2017-09-16T11:15:32.810Z,1002.4
2017-09-16T11:16:34.184Z,1002.6
2017-09-16T11:17:35.573Z,1002.7
2017-09-16T11:18:36.959Z,1002.7
2017-09-16T11:19:38.344Z,1002.6
2017-09-16T11:20:39.733Z,1002.7
2017-09-16T11:21:41.119Z,1002.5
2017-09-16T11:22:42.507Z,1002.7
2017-09-16T11:23:43.897Z,1002.6
2017-09-16T11:24:45.336Z,1002.6
2017-09-16T11:25:46.699Z,1002.7
2017-09-16T11:26:48.113Z,1002.6
2017-09-16T11:27:49.504Z,1002.6
2017-09-16T11:28:50.900Z,1002.6
2017-09-16T11:29:52.303Z,1002.6
2017-09-16T11:30:53.683Z,1002.5
2017-09-16T11:31:55.118Z,1002.6
2017-09-16T11:32:56.511Z,1002.6
2017-09-16T11:33:57.897Z,1002.5
2017-09-16T11:34:59.294Z,1002.6
2017-09-16T11:36:00.687Z,1002.5
2017-09-16T11:37:02.079Z,1002.6
2017-09-16T11:38:03.478Z,1002.5
2017-09-16T11:39:04.876Z,1002.6
2017-09-16T11:40:06.268Z,1002.5
2017-09-16T11:41:07.667Z,1002.5
2017-09-16T11:42:09.072Z,1002.5
2017-09-16T11:43:10.479Z,1002.5
2017-09-16T11:44:11.879Z,1002.5
2017-09-16T11:45:13.270Z,1002.5
2017-09-16T11:46:14.736Z,1002.5
2017-09-16T11:47:16.270Z,1002.5
2017-09-16T11:48:17.918Z,1002.4
2017-09-16T11:49:19.698Z,1002.4
2017-09-16T11:50:21.176Z,1002.5
2017-09-16T11:51:22.592Z,1002.5
2017-09-16T11:52:23.998Z,1002.5
2017-09-16T11:53:25.391Z,1002.5
2017-09-16T11:54:26.796Z,1002.5
2017-09-16T11:55:28.212Z,1002.6
2017-09-16T11:56:29.610Z,1002.5
2017-09-16T11:57:31.006Z,1002.4
2017-09-16T11:58:32.402Z,1002.4
2017-09-16T11:59:33.802Z,1002.4
2017-09-16T12:00:35.200Z,1002.5
2017-09-16T12:01:36.596Z,1002.5
2017-09-16T12:02:37.989Z,1002.5
2017-09-16T12:03:39.383Z,1002.5
2017-09-16T12:04:40.856Z,1002.4
2017-09-16T12:05:42.248Z,1002.4
2017-09-16T12:06:43.644Z,1002.4
2017-09-16T12:07:45.041Z,1002.4
2017-09-16T12:08:46.443Z,1002.5
2017-09-16T12:09:47.841Z,1002.5
2017-09-16T12:10:49.236Z,1002.4
2017-09-16T12:11:50.635Z,1002.5
2017-09-16T12:12:52.033Z,1002.4
2017-09-16T12:13:53.426Z,1002.4
2017-09-16T12:15:34.832Z,1002.4
2017-09-16T12:16:36.224Z,1002.3
2017-09-16T12:17:37.619Z,1002.3
2017-09-16T12:18:39.008Z,1002.4
2017-09-16T12:19:40.401Z,1002.3
2017-09-16T12:20:41.882Z,1002.3
2017-09-16T12:21:43.276Z,1002.4
2017-09-16T12:22:44.666Z,1002.3
2017-09-16T12:23:46.060Z,1002.3
2017-09-16T12:24:47.473Z,1002.3
2017-09-16T12:25:48.995Z,1002.3
2017-09-16T12:26:50.370Z,1002.3
2017-09-16T12:27:52.537Z,1002.3
2017-09-16T12:28:53.943Z,1002.2
2017-09-16T12:29:55.406Z,1002.3
2017-09-16T12:31:36.803Z,1002.3
2017-09-16T12:32:38.217Z,1002.1
2017-09-16T12:33:39.616Z,1002.3
2017-09-16T12:34:41.406Z,1002.2
2017-09-16T12:35:42.763Z,1002.2
2017-09-16T12:36:44.152Z,1002.2
2017-09-16T12:37:45.565Z,1002.2
2017-09-16T12:38:46.966Z,1002.2
2017-09-16T12:39:48.355Z,1002.2
2017-09-16T12:40:49.749Z,1002.2
2017-09-16T12:41:51.142Z,1002.3
2017-09-16T12:42:52.533Z,1002.2
2017-09-16T12:43:53.923Z,1002.2
2017-09-16T12:44:55.318Z,1002.2
2017-09-16T12:45:56.714Z,1002.2
2017-09-16T12:46:58.112Z,1002.2
2017-09-16T12:47:59.498Z,1002.3
2017-09-16T12:49:00.890Z,1002.2
2017-09-16T12:50:02.285Z,1002.2
2017-09-16T12:51:03.680Z,1002.2
2017-09-16T12:52:05.129Z,1002.2
2017-09-16T12:53:06.540Z,1002.2
2017-09-16T12:54:07.929Z,1002.2
2017-09-16T12:55:09.340Z,1002.2
2017-09-16T12:56:10.876Z,1002.2
2017-09-16T12:57:12.279Z,1002.2
2017-09-16T12:58:13.668Z,1002.2
2017-09-16T12:59:15.076Z,1002.2
2017-09-16T13:00:16.699Z,1002.2
2017-09-16T13:01:18.101Z,1002.3